Springfield, IL (62715)

1:28 AM CDT on May 25, 2015 (GMT -0500)
Springfield West Side | | Change Station
CLOSE
Current Station
Personal Weather Station
Location: Springfield, IL
Elevation: 604 ft
Nearby Weather Stations

Elev 604 ft 39.79 °N, 89.69 °W | Updated 44 seconds ago

Rain
Rain
66.4 °F
Feels Like 66.4 °F
N
2.5
Wind Variable Wind from East
Gusts 5.8 mph

Today
High -- | Low -- °F
--% Chance of Precip.
Yesterday
High -- | Low -- °F
Precip. -- in
5:36 AM 8:15 PM
Waxing Crescent, 46% visible
Pressure 29.87 in
Visibility 10.0 miles
Clouds Few 3100 ft
Scattered Clouds 5500 ft
Mostly Cloudy 7000 ft
Dew Point 65 °F
Humidity 96%
Rainfall 0.07 in
Snow Depth Not available.
UV 0 out of 12
Pollen 8.00 out of 12
Air Quality Not available.
Flu Activity Sporadic
METAR KSPI 250552Z AUTO 16013KT 10SM FEW031 SCT055 BKN070 21/19 A2988 RMK AO2 PK WND 15027/0458 RAE30 SLP114 P0010 60021 T02060194 10267 20206 403110183 58006

More Conditions Fewer Conditions

Pressure 29.87 in
Visibility 10.0 miles
Clouds Few 3100 ft
Scattered Clouds 5500 ft
Mostly Cloudy 7000 ft
Dew Point 65 °F
Humidity 96%
Rainfall 0.07 in
Snow Depth Not available.
UV 0 out of 12
Pollen 8.00 out of 12
Air Quality Not available.
Flu Activity Sporadic
METAR KSPI 250552Z AUTO 16013KT 10SM FEW031 SCT055 BKN070 21/19 A2988 RMK AO2 PK WND 15027/0458 RAE30 SLP114 P0010 60021 T02060194 10267 20206 403110183 58006

More Conditions Fewer Conditions

10-Day Weather Forecast

Almanac

Astronomy

May. 25, 2015 Rise Set
Actual Time
Civil Twilight
Nautical Twilight
Astronomical Twilight
Moon
Length of Visible Light
Length of Day
Tomorrow will be .
, % of the Moon is Illuminated

Today's Extremes

State Highs State Lows

Community

WunderPhotos

Upload Photos

1,823,957 photos uploaded!

WunderBlogs® & News

Nearby

Air Quality

  Air Quality AQ Index Pollutant
Not available.

Snow Depth

Station Depth Elevation

Earthquake Activity

City Distance Mag. Time & Date
Minimum magnitude displayed is 2.5.

Coastal Water Temperatures

Place Temperature

Stations

Nearby Weather Stations

Station Location Temp. Windchill Dew Point Humidity Wind Precip. Elev Updated Type